sensor_id;sensor_type;location;lat;lon;timestamp;pressure;altitude;pressure_sealevel;temperature;humidity
21109;BME280;10712;52.944;9.098;2023-08-24T00:01:10;101753.16;;;26.02;70.41
21109;BME280;10712;52.944;9.098;2023-08-24T00:03:40;101753.69;;;26.05;70.34
21109;BME280;10712;52.944;9.098;2023-08-24T00:06:06;101754.88;;;26.03;70.28
21109;BME280;10712;52.944;9.098;2023-08-24T00:08:32;101760.31;;;26.03;70.41
21109;BME280;10712;52.944;9.098;2023-08-24T00:10:58;101751.44;;;26.01;70.29
21109;BME280;10712;52.944;9.098;2023-08-24T00:13:24;101752.63;;;25.98;70.15
21109;BME280;10712;52.944;9.098;2023-08-24T00:15:50;101747.31;;;25.88;70.09
21109;BME280;10712;52.944;9.098;2023-08-24T00:18:15;101749.13;;;25.80;70.04
21109;BME280;10712;52.944;9.098;2023-08-24T00:20:43;101753.53;;;25.73;70.41
21109;BME280;10712;52.944;9.098;2023-08-24T00:23:09;101751.84;;;25.72;70.82
21109;BME280;10712;52.944;9.098;2023-08-24T00:25:35;101750.28;;;25.69;70.67
21109;BME280;10712;52.944;9.098;2023-08-24T00:28:00;101746.69;;;25.69;70.58
21109;BME280;10712;52.944;9.098;2023-08-24T00:30:26;101745.84;;;25.68;70.61
21109;BME280;10712;52.944;9.098;2023-08-24T00:32:52;101748.22;;;25.63;70.49
21109;BME280;10712;52.944;9.098;2023-08-24T00:35:18;101743.38;;;25.57;70.59
21109;BME280;10712;52.944;9.098;2023-08-24T00:37:44;101741.66;;;25.56;70.84
21109;BME280;10712;52.944;9.098;2023-08-24T00:40:09;101744.03;;;25.51;70.89
21109;BME280;10712;52.944;9.098;2023-08-24T00:42:38;101735.78;;;25.43;70.92
21109;BME280;10712;52.944;9.098;2023-08-24T00:45:06;101741.03;;;25.36;70.75
21109;BME280;10712;52.944;9.098;2023-08-24T00:47:33;101751.75;;;25.30;71.21
21109;BME280;10712;52.944;9.098;2023-08-24T00:50:00;101740.50;;;25.33;71.42
21109;BME280;10712;52.944;9.098;2023-08-24T00:52:28;101735.59;;;25.36;71.57
21109;BME280;10712;52.944;9.098;2023-08-24T00:54:54;101737.63;;;25.34;71.23
21109;BME280;10712;52.944;9.098;2023-08-24T00:57:21;101737.78;;;25.33;71.21
21109;BME280;10712;52.944;9.098;2023-08-24T00:59:48;101742.56;;;25.31;71.12
21109;BME280;10712;52.944;9.098;2023-08-24T01:02:14;101745.91;;;25.25;71.10
21109;BME280;10712;52.944;9.098;2023-08-24T01:04:43;101747.25;;;25.21;71.34
21109;BME280;10712;52.944;9.098;2023-08-24T01:07:10;101744.38;;;25.22;71.35
21109;BME280;10712;52.944;9.098;2023-08-24T01:09:36;101753.06;;;25.26;71.36
21109;BME280;10712;52.944;9.098;2023-08-24T01:15:04;101750.03;;;25.29;71.25
21109;BME280;10712;52.944;9.098;2023-08-24T01:17:35;101755.13;;;25.24;70.98
21109;BME280;10712;52.944;9.098;2023-08-24T01:20:03;101755.06;;;25.16;71.13
21109;BME280;10712;52.944;9.098;2023-08-24T01:22:36;101753.34;;;25.15;71.25
21109;BME280;10712;52.944;9.098;2023-08-24T01:25:23;101757.78;;;25.16;71.18
21109;BME280;10712;52.944;9.098;2023-08-24T01:27:50;101755.38;;;25.13;70.99
21109;BME280;10712;52.944;9.098;2023-08-24T01:30:17;101754.28;;;25.05;71.19
21109;BME280;10712;52.944;9.098;2023-08-24T01:32:43;101749.63;;;24.98;71.17
21109;BME280;10712;52.944;9.098;2023-08-24T01:35:09;101756.94;;;24.97;71.49
21109;BME280;10712;52.944;9.098;2023-08-24T01:37:37;101745.88;;;24.99;71.45
21109;BME280;10712;52.944;9.098;2023-08-24T01:40:06;101751.91;;;25.02;71.19
21109;BME280;10712;52.944;9.098;2023-08-24T01:42:57;101734.50;;;25.03;71.08
21109;BME280;10712;52.944;9.098;2023-08-24T01:45:29;101743.72;;;25.02;71.19
21109;BME280;10712;52.944;9.098;2023-08-24T01:47:55;101737.72;;;24.99;71.00
21109;BME280;10712;52.944;9.098;2023-08-24T01:50:22;101737.50;;;24.92;70.82
21109;BME280;10712;52.944;9.098;2023-08-24T01:52:48;101740.13;;;24.84;70.90
21109;BME280;10712;52.944;9.098;2023-08-24T01:55:17;101733.28;;;24.80;70.95
21109;BME280;10712;52.944;9.098;2023-08-24T01:57:43;101742.75;;;24.76;70.84
21109;BME280;10712;52.944;9.098;2023-08-24T02:00:09;101739.50;;;24.72;71.06
21109;BME280;10712;52.944;9.098;2023-08-24T02:02:39;101733.50;;;24.69;70.91
21109;BME280;10712;52.944;9.098;2023-08-24T02:05:05;101731.47;;;24.71;71.35
21109;BME280;10712;52.944;9.098;2023-08-24T02:07:31;101733.34;;;24.70;71.11
21109;BME280;10712;52.944;9.098;2023-08-24T02:09:56;101729.94;;;24.68;71.13
21109;BME280;10712;52.944;9.098;2023-08-24T02:12:22;101731.63;;;24.69;70.93
21109;BME280;10712;52.944;9.098;2023-08-24T02:14:48;101728.75;;;24.71;71.08
21109;BME280;10712;52.944;9.098;2023-08-24T02:17:15;101723.31;;;24.71;70.99
21109;BME280;10712;52.944;9.098;2023-08-24T02:19:41;101719.88;;;24.69;70.80
21109;BME280;10712;52.944;9.098;2023-08-24T02:22:08;101729.69;;;24.62;70.65
21109;BME280;10712;52.944;9.098;2023-08-24T02:24:34;101722.00;;;24.57;70.88
21109;BME280;10712;52.944;9.098;2023-08-24T02:27:00;101715.84;;;24.55;70.83
21109;BME280;10712;52.944;9.098;2023-08-24T02:29:26;101710.00;;;24.50;71.03
21109;BME280;10712;52.944;9.098;2023-08-24T02:31:51;101715.59;;;24.49;70.95
21109;BME280;10712;52.944;9.098;2023-08-24T02:34:17;101715.78;;;24.47;71.11
21109;BME280;10712;52.944;9.098;2023-08-24T02:36:44;101716.66;;;24.48;70.90
21109;BME280;10712;52.944;9.098;2023-08-24T02:39:09;101720.69;;;24.44;70.85
21109;BME280;10712;52.944;9.098;2023-08-24T02:41:36;101709.25;;;24.40;70.75
21109;BME280;10712;52.944;9.098;2023-08-24T02:44:02;101712.66;;;24.42;71.15
21109;BME280;10712;52.944;9.098;2023-08-24T02:46:28;101710.09;;;24.41;70.81
21109;BME280;10712;52.944;9.098;2023-08-24T02:48:54;101709.47;;;24.47;70.91
21109;BME280;10712;52.944;9.098;2023-08-24T02:51:22;101708.06;;;24.43;70.61
21109;BME280;10712;52.944;9.098;2023-08-24T02:53:48;101704.41;;;24.34;70.47
21109;BME280;10712;52.944;9.098;2023-08-24T02:56:14;101703.63;;;24.24;70.78
21109;BME280;10712;52.944;9.098;2023-08-24T02:58:40;101699.34;;;24.21;70.83
21109;BME280;10712;52.944;9.098;2023-08-24T03:01:06;101692.47;;;24.17;71.00
21109;BME280;10712;52.944;9.098;2023-08-24T03:03:36;101690.50;;;24.19;71.16
21109;BME280;10712;52.944;9.098;2023-08-24T03:06:04;101682.00;;;24.22;70.96
21109;BME280;10712;52.944;9.098;2023-08-24T03:08:32;101674.81;;;24.21;71.20
21109;BME280;10712;52.944;9.098;2023-08-24T03:10:59;101684.16;;;24.19;71.05
21109;BME280;10712;52.944;9.098;2023-08-24T03:13:26;101674.16;;;24.19;71.01
21109;BME280;10712;52.944;9.098;2023-08-24T03:15:53;101676.13;;;24.17;71.22
21109;BME280;10712;52.944;9.098;2023-08-24T03:18:19;101678.13;;;24.15;71.00
21109;BME280;10712;52.944;9.098;2023-08-24T03:20:46;101674.41;;;24.16;71.40
21109;BME280;10712;52.944;9.098;2023-08-24T03:23:17;101674.03;;;24.11;71.28
21109;BME280;10712;52.944;9.098;2023-08-24T03:25:43;101672.78;;;24.06;71.36
21109;BME280;10712;52.944;9.098;2023-08-24T03:28:09;101670.50;;;24.01;71.68
21109;BME280;10712;52.944;9.098;2023-08-24T03:30:37;101670.50;;;24.01;71.84
21109;BME280;10712;52.944;9.098;2023-08-24T03:33:04;101669.03;;;24.07;71.82
21109;BME280;10712;52.944;9.098;2023-08-24T03:35:31;101676.75;;;24.11;72.04
21109;BME280;10712;52.944;9.098;2023-08-24T03:37:57;101674.75;;;24.13;71.96
21109;BME280;10712;52.944;9.098;2023-08-24T03:40:23;101676.75;;;24.11;71.87
21109;BME280;10712;52.944;9.098;2023-08-24T03:42:50;101667.72;;;24.11;71.95
21109;BME280;10712;52.944;9.098;2023-08-24T03:45:16;101668.44;;;24.13;72.47
21109;BME280;10712;52.944;9.098;2023-08-24T03:47:41;101676.13;;;24.17;72.27
21109;BME280;10712;52.944;9.098;2023-08-24T03:50:07;101694.81;;;24.12;72.36
21109;BME280;10712;52.944;9.098;2023-08-24T03:52:33;101703.28;;;24.09;72.22
21109;BME280;10712;52.944;9.098;2023-08-24T03:54:59;101696.66;;;24.12;72.79
21109;BME280;10712;52.944;9.098;2023-08-24T03:57:25;101692.22;;;24.11;72.56
21109;BME280;10712;52.944;9.098;2023-08-24T03:59:51;101697.53;;;24.12;72.81
21109;BME280;10712;52.944;9.098;2023-08-24T04:02:16;101692.31;;;24.19;72.84
21109;BME280;10712;52.944;9.098;2023-08-24T04:04:43;101688.28;;;24.23;72.78
21109;BME280;10712;52.944;9.098;2023-08-24T04:07:08;101691.25;;;24.29;73.18
21109;BME280;10712;52.944;9.098;2023-08-24T04:09:34;101699.28;;;24.31;73.00
21109;BME280;10712;52.944;9.098;2023-08-24T04:12:00;101707.44;;;24.31;73.05
21109;BME280;10712;52.944;9.098;2023-08-24T04:14:26;101710.16;;;24.31;73.09
21109;BME280;10712;52.944;9.098;2023-08-24T04:16:51;101708.31;;;24.31;73.32
21109;BME280;10712;52.944;9.098;2023-08-24T04:19:17;101716.16;;;24.34;73.48
21109;BME280;10712;52.944;9.098;2023-08-24T04:21:43;101723.31;;;24.36;73.36
21109;BME280;10712;52.944;9.098;2023-08-24T04:24:09;101716.72;;;24.38;73.48
21109;BME280;10712;52.944;9.098;2023-08-24T04:26:34;101711.50;;;24.45;73.56
21109;BME280;10712;52.944;9.098;2023-08-24T04:29:00;101714.59;;;24.50;73.65
21109;BME280;10712;52.944;9.098;2023-08-24T04:31:26;101712.25;;;24.55;73.76
21109;BME280;10712;52.944;9.098;2023-08-24T04:33:51;101705.78;;;24.56;73.85
21109;BME280;10712;52.944;9.098;2023-08-24T04:36:17;101699.97;;;24.51;73.86
21109;BME280;10712;52.944;9.098;2023-08-24T04:38:43;101692.94;;;24.48;74.01
21109;BME280;10712;52.944;9.098;2023-08-24T04:41:09;101691.50;;;24.54;73.94
21109;BME280;10712;52.944;9.098;2023-08-24T04:43:35;101693.88;;;24.57;74.04
21109;BME280;10712;52.944;9.098;2023-08-24T04:46:02;101698.88;;;24.61;74.13
21109;BME280;10712;52.944;9.098;2023-08-24T04:48:28;101692.09;;;24.65;74.41
21109;BME280;10712;52.944;9.098;2023-08-24T04:50:58;101679.84;;;24.69;74.51
21109;BME280;10712;52.944;9.098;2023-08-24T04:53:25;101690.59;;;24.71;74.56
21109;BME280;10712;52.944;9.098;2023-08-24T04:55:51;101688.22;;;24.68;74.42
21109;BME280;10712;52.944;9.098;2023-08-24T04:58:17;101701.84;;;24.68;74.39
21109;BME280;10712;52.944;9.098;2023-08-24T05:00:43;101695.97;;;24.63;74.43
21109;BME280;10712;52.944;9.098;2023-08-24T05:03:09;101701.06;;;24.58;74.55
21109;BME280;10712;52.944;9.098;2023-08-24T05:05:36;101688.78;;;24.54;75.11
21109;BME280;10712;52.944;9.098;2023-08-24T05:08:03;101693.19;;;24.55;74.65
21109;BME280;10712;52.944;9.098;2023-08-24T05:10:32;101702.06;;;24.57;74.93
21109;BME280;10712;52.944;9.098;2023-08-24T05:12:59;101706.22;;;24.61;75.10
21109;BME280;10712;52.944;9.098;2023-08-24T05:15:26;101705.88;;;24.64;74.88
21109;BME280;10712;52.944;9.098;2023-08-24T05:17:52;101702.84;;;24.67;74.76
21109;BME280;10712;52.944;9.098;2023-08-24T05:20:20;101700.13;;;24.67;75.02
21109;BME280;10712;52.944;9.098;2023-08-24T05:22:47;101703.38;;;24.70;74.90
21109;BME280;10712;52.944;9.098;2023-08-24T05:25:13;101702.22;;;24.73;74.91
21109;BME280;10712;52.944;9.098;2023-08-24T05:27:39;101693.69;;;24.76;74.97
21109;BME280;10712;52.944;9.098;2023-08-24T05:30:06;101698.28;;;24.76;74.81
21109;BME280;10712;52.944;9.098;2023-08-24T05:32:32;101692.63;;;24.69;74.84
21109;BME280;10712;52.944;9.098;2023-08-24T05:34:58;101706.22;;;24.61;74.67
21109;BME280;10712;52.944;9.098;2023-08-24T05:37:24;101714.16;;;24.54;74.73
21109;BME280;10712;52.944;9.098;2023-08-24T05:39:50;101705.41;;;24.51;75.02
21109;BME280;10712;52.944;9.098;2023-08-24T05:42:15;101699.66;;;24.54;75.12
21109;BME280;10712;52.944;9.098;2023-08-24T05:44:41;101708.22;;;24.59;74.90
21109;BME280;10712;52.944;9.098;2023-08-24T05:47:07;101706.88;;;24.63;74.88
21109;BME280;10712;52.944;9.098;2023-08-24T05:49:32;101705.56;;;24.67;75.24
21109;BME280;10712;52.944;9.098;2023-08-24T05:51:58;101703.38;;;24.70;75.11
21109;BME280;10712;52.944;9.098;2023-08-24T05:54:24;101694.03;;;24.73;75.14
21109;BME280;10712;52.944;9.098;2023-08-24T05:56:49;101694.56;;;24.77;75.35
21109;BME280;10712;52.944;9.098;2023-08-24T05:59:15;101694.09;;;24.81;75.40
21109;BME280;10712;52.944;9.098;2023-08-24T06:01:41;101693.31;;;24.89;75.46
21109;BME280;10712;52.944;9.098;2023-08-24T06:04:10;101682.66;;;24.95;75.40
21109;BME280;10712;52.944;9.098;2023-08-24T06:06:36;101678.59;;;24.99;75.60
21109;BME280;10712;52.944;9.098;2023-08-24T06:09:02;101687.13;;;25.04;75.51
21109;BME280;10712;52.944;9.098;2023-08-24T06:11:34;101688.53;;;25.08;75.79
21109;BME280;10712;52.944;9.098;2023-08-24T06:14:01;101687.19;;;25.13;75.82
21109;BME280;10712;52.944;9.098;2023-08-24T06:16:28;101687.53;;;25.18;75.80
21109;BME280;10712;52.944;9.098;2023-08-24T06:18:54;101679.75;;;25.23;75.83
21109;BME280;10712;52.944;9.098;2023-08-24T06:21:19;101678.25;;;25.28;75.94
21109;BME280;10712;52.944;9.098;2023-08-24T06:23:45;101678.47;;;25.35;75.77
21109;BME280;10712;52.944;9.098;2023-08-24T06:26:13;101669.78;;;25.39;75.67
21109;BME280;10712;52.944;9.098;2023-08-24T06:28:39;101669.47;;;25.42;75.52
21109;BME280;10712;52.944;9.098;2023-08-24T06:31:05;101673.25;;;25.49;75.17
21109;BME280;10712;52.944;9.098;2023-08-24T06:33:33;101671.22;;;25.52;75.51
21109;BME280;10712;52.944;9.098;2023-08-24T06:36:00;101670.72;;;25.56;75.28
21109;BME280;10712;52.944;9.098;2023-08-24T06:38:26;101672.09;;;25.60;75.30
21109;BME280;10712;52.944;9.098;2023-08-24T06:40:52;101666.00;;;25.66;75.24
21109;BME280;10712;52.944;9.098;2023-08-24T06:43:17;101661.94;;;25.70;75.28
21109;BME280;10712;52.944;9.098;2023-08-24T06:45:46;101665.69;;;25.77;75.21
21109;BME280;10712;52.944;9.098;2023-08-24T06:48:12;101653.97;;;25.85;75.08
21109;BME280;10712;52.944;9.098;2023-08-24T06:50:38;101657.88;;;25.91;74.85
21109;BME280;10712;52.944;9.098;2023-08-24T06:53:04;101655.34;;;25.97;74.93
21109;BME280;10712;52.944;9.098;2023-08-24T06:55:30;101654.50;;;26.05;74.85
21109;BME280;10712;52.944;9.098;2023-08-24T06:57:56;101652.97;;;26.10;74.72
21109;BME280;10712;52.944;9.098;2023-08-24T07:00:22;101647.00;;;26.15;74.92
21109;BME280;10712;52.944;9.098;2023-08-24T07:02:49;101638.13;;;26.21;74.80
21109;BME280;10712;52.944;9.098;2023-08-24T07:05:15;101640.91;;;26.29;74.59
21109;BME280;10712;52.944;9.098;2023-08-24T07:07:45;101632.38;;;26.40;74.27
21109;BME280;10712;52.944;9.098;2023-08-24T07:10:11;101622.81;;;26.44;74.15
21109;BME280;10712;52.944;9.098;2023-08-24T07:12:37;101616.66;;;26.50;74.16
21109;BME280;10712;52.944;9.098;2023-08-24T07:15:07;101621.41;;;26.56;73.95
21109;BME280;10712;52.944;9.098;2023-08-24T07:17:33;101620.72;;;26.62;74.09
21109;BME280;10712;52.944;9.098;2023-08-24T07:19:58;101613.53;;;26.78;73.53
21109;BME280;10712;52.944;9.098;2023-08-24T07:22:24;101619.69;;;26.88;72.97
21109;BME280;10712;52.944;9.098;2023-08-24T07:24:52;101617.66;;;26.82;73.21
21109;BME280;10712;52.944;9.098;2023-08-24T07:27:18;101614.22;;;26.88;73.21
21109;BME280;10712;52.944;9.098;2023-08-24T07:29:44;101621.75;;;26.94;72.93
21109;BME280;10712;52.944;9.098;2023-08-24T07:32:10;101615.56;;;27.00;73.05
21109;BME280;10712;52.944;9.098;2023-08-24T07:34:36;101617.59;;;27.06;73.11
21109;BME280;10712;52.944;9.098;2023-08-24T07:37:02;101613.13;;;27.13;73.15
21109;BME280;10712;52.944;9.098;2023-08-24T07:39:27;101612.44;;;27.19;72.85
21109;BME280;10712;52.944;9.098;2023-08-24T07:41:53;101597.19;;;27.25;73.04
21109;BME280;10712;52.944;9.098;2023-08-24T07:44:19;101605.19;;;27.34;72.66
21109;BME280;10712;52.944;9.098;2023-08-24T07:46:45;101600.72;;;27.41;72.42
21109;BME280;10712;52.944;9.098;2023-08-24T07:49:10;101599.31;;;27.45;72.32
21109;BME280;10712;52.944;9.098;2023-08-24T07:51:36;101602.38;;;27.51;72.14
21109;BME280;10712;52.944;9.098;2023-08-24T07:54:02;101608.03;;;27.57;71.90
21109;BME280;10712;52.944;9.098;2023-08-24T07:56:30;101614.66;;;27.63;71.83
21109;BME280;10712;52.944;9.098;2023-08-24T07:58:55;101603.00;;;27.69;71.61
21109;BME280;10712;52.944;9.098;2023-08-24T08:01:21;101609.81;;;27.73;71.66
21109;BME280;10712;52.944;9.098;2023-08-24T08:03:47;101594.34;;;27.80;71.05
21109;BME280;10712;52.944;9.098;2023-08-24T08:06:13;101597.03;;;27.88;71.25
21109;BME280;10712;52.944;9.098;2023-08-24T08:08:39;101592.53;;;27.95;71.09
21109;BME280;10712;52.944;9.098;2023-08-24T08:11:05;101588.03;;;28.02;71.05
21109;BME280;10712;52.944;9.098;2023-08-24T08:13:30;101583.91;;;28.06;70.62
21109;BME280;10712;52.944;9.098;2023-08-24T08:16:03;101586.59;;;28.14;69.91
21109;BME280;10712;52.944;9.098;2023-08-24T08:18:30;101586.53;;;28.23;69.64
21109;BME280;10712;52.944;9.098;2023-08-24T08:20:56;101583.06;;;28.29;69.33
21109;BME280;10712;52.944;9.098;2023-08-24T08:23:22;101577.31;;;28.38;69.07
21109;BME280;10712;52.944;9.098;2023-08-24T08:25:47;101577.06;;;28.48;68.53
21109;BME280;10712;52.944;9.098;2023-08-24T08:28:13;101576.59;;;28.59;67.73
21109;BME280;10712;52.944;9.098;2023-08-24T08:30:39;101579.56;;;28.72;67.78
21109;BME280;10712;52.944;9.098;2023-08-24T08:33:04;101584.31;;;28.78;67.25
21109;BME280;10712;52.944;9.098;2023-08-24T08:35:30;101579.44;;;28.88;65.76
21109;BME280;10712;52.944;9.098;2023-08-24T08:37:56;101569.41;;;28.95;65.89
21109;BME280;10712;52.944;9.098;2023-08-24T08:40:24;101574.78;;;29.04;66.28
21109;BME280;10712;52.944;9.098;2023-08-24T08:42:56;101571.66;;;29.07;65.98
21109;BME280;10712;52.944;9.098;2023-08-24T08:45:25;101565.41;;;29.13;65.39
21109;BME280;10712;52.944;9.098;2023-08-24T08:47:55;101568.91;;;29.21;64.62
21109;BME280;10712;52.944;9.098;2023-08-24T08:50:22;101574.09;;;29.31;64.62
21109;BME280;10712;52.944;9.098;2023-08-24T08:52:47;101575.06;;;29.38;64.48
21109;BME280;10712;52.944;9.098;2023-08-24T08:55:13;101567.75;;;29.45;64.55
21109;BME280;10712;52.944;9.098;2023-08-24T08:57:41;101568.03;;;29.50;63.91
21109;BME280;10712;52.944;9.098;2023-08-24T09:00:11;101567.31;;;29.63;62.70
21109;BME280;10712;52.944;9.098;2023-08-24T09:02:42;101569.88;;;29.64;62.71
21109;BME280;10712;52.944;9.098;2023-08-24T09:05:10;101580.09;;;29.70;62.83
21109;BME280;10712;52.944;9.098;2023-08-24T09:07:36;101573.03;;;29.83;62.61
21109;BME280;10712;52.944;9.098;2023-08-24T09:10:04;101571.88;;;29.92;62.73
21109;BME280;10712;52.944;9.098;2023-08-24T09:12:32;101576.59;;;29.98;62.12
21109;BME280;10712;52.944;9.098;2023-08-24T09:14:58;101567.75;;;30.02;61.44
21109;BME280;10712;52.944;9.098;2023-08-24T09:17:24;101569.94;;;30.07;62.38
21109;BME280;10712;52.944;9.098;2023-08-24T09:19:51;101570.19;;;30.12;62.59
21109;BME280;10712;52.944;9.098;2023-08-24T09:22:19;101568.34;;;30.19;62.02
21109;BME280;10712;52.944;9.098;2023-08-24T09:24:48;101567.13;;;30.22;61.61
21109;BME280;10712;52.944;9.098;2023-08-24T09:27:20;101550.25;;;30.31;61.65
21109;BME280;10712;52.944;9.098;2023-08-24T09:29:49;101531.69;;;30.33;61.54
21109;BME280;10712;52.944;9.098;2023-08-24T09:32:21;101519.50;;;30.42;62.14
21109;BME280;10712;52.944;9.098;2023-08-24T09:34:47;101518.28;;;30.51;61.63
21109;BME280;10712;52.944;9.098;2023-08-24T09:37:14;101520.91;;;30.60;61.19
21109;BME280;10712;52.944;9.098;2023-08-24T09:39:41;101534.50;;;30.68;61.38
21109;BME280;10712;52.944;9.098;2023-08-24T09:42:07;101524.78;;;30.72;60.79
21109;BME280;10712;52.944;9.098;2023-08-24T09:44:32;101510.44;;;30.76;60.37
21109;BME280;10712;52.944;9.098;2023-08-24T09:46:59;101503.69;;;30.85;60.83
21109;BME280;10712;52.944;9.098;2023-08-24T09:49:25;101505.88;;;30.97;60.73
21109;BME280;10712;52.944;9.098;2023-08-24T09:51:55;101495.28;;;31.00;60.51
21109;BME280;10712;52.944;9.098;2023-08-24T09:54:26;101483.88;;;31.03;60.37
21109;BME280;10712;52.944;9.098;2023-08-24T09:56:55;101484.78;;;31.10;60.89
21109;BME280;10712;52.944;9.098;2023-08-24T09:59:22;101473.81;;;31.17;60.73
21109;BME280;10712;52.944;9.098;2023-08-24T10:01:51;101463.22;;;31.20;60.61
21109;BME280;10712;52.944;9.098;2023-08-24T10:04:21;101456.69;;;31.35;60.80
21109;BME280;10712;52.944;9.098;2023-08-24T10:06:52;101457.34;;;31.37;60.23
21109;BME280;10712;52.944;9.098;2023-08-24T10:09:31;101454.78;;;31.42;60.14
21109;BME280;10712;52.944;9.098;2023-08-24T10:12:00;101448.88;;;31.51;59.54
21109;BME280;10712;52.944;9.098;2023-08-24T10:17:02;101457.41;;;31.76;57.40
21109;BME280;10712;52.944;9.098;2023-08-24T10:19:28;101448.94;;;31.71;57.35
21109;BME280;10712;52.944;9.098;2023-08-24T10:21:56;101445.53;;;31.76;58.24
21109;BME280;10712;52.944;9.098;2023-08-24T10:24:25;101445.97;;;31.79;58.76
21109;BME280;10712;52.944;9.098;2023-08-24T10:26:52;101434.09;;;31.85;58.80
21109;BME280;10712;52.944;9.098;2023-08-24T10:29:19;101430.09;;;31.94;59.17
21109;BME280;10712;52.944;9.098;2023-08-24T10:31:46;101427.31;;;32.07;59.17
21109;BME280;10712;52.944;9.098;2023-08-24T10:34:14;101424.34;;;32.16;58.98
21109;BME280;10712;52.944;9.098;2023-08-24T10:36:40;101416.91;;;32.23;58.74
21109;BME280;10712;52.944;9.098;2023-08-24T10:39:06;101424.34;;;32.29;58.01
21109;BME280;10712;52.944;9.098;2023-08-24T10:41:52;101421.78;;;32.34;58.25
21109;BME280;10712;52.944;9.098;2023-08-24T10:44:37;101409.69;;;32.35;57.99
21109;BME280;10712;52.944;9.098;2023-08-24T10:47:20;101400.09;;;32.44;58.40
21109;BME280;10712;52.944;9.098;2023-08-24T10:49:59;101401.13;;;32.56;57.93
21109;BME280;10712;52.944;9.098;2023-08-24T10:52:35;101398.34;;;32.63;57.42
21109;BME280;10712;52.944;9.098;2023-08-24T10:55:25;101405.09;;;32.73;56.88
21109;BME280;10712;52.944;9.098;2023-08-24T10:57:58;101408.94;;;32.72;55.35
21109;BME280;10712;52.944;9.098;2023-08-24T11:00:27;101403.97;;;32.88;55.71
21109;BME280;10712;52.944;9.098;2023-08-24T11:02:54;101406.31;;;32.91;54.25
21109;BME280;10712;52.944;9.098;2023-08-24T11:08:05;101396.09;;;32.98;55.42
21109;BME280;10712;52.944;9.098;2023-08-24T11:10:34;101379.69;;;33.03;55.56
21109;BME280;10712;52.944;9.098;2023-08-24T11:13:18;101367.09;;;33.13;55.93
21109;BME280;10712;52.944;9.098;2023-08-24T11:15:46;101363.66;;;33.18;54.82
21109;BME280;10712;52.944;9.098;2023-08-24T11:20:45;101359.88;;;33.12;54.42
21109;BME280;10712;52.944;9.098;2023-08-24T11:23:15;101360.72;;;33.13;55.01
21109;BME280;10712;52.944;9.098;2023-08-24T11:25:41;101347.16;;;33.11;54.84
21109;BME280;10712;52.944;9.098;2023-08-24T11:28:07;101339.25;;;33.15;55.29
21109;BME280;10712;52.944;9.098;2023-08-24T11:30:34;101334.78;;;33.14;55.10
21109;BME280;10712;52.944;9.098;2023-08-24T11:33:01;101329.91;;;33.16;55.69
21109;BME280;10712;52.944;9.098;2023-08-24T11:35:26;101326.91;;;33.17;53.87
21109;BME280;10712;52.944;9.098;2023-08-24T11:37:53;101318.44;;;33.12;54.49
21109;BME280;10712;52.944;9.098;2023-08-24T11:40:19;101318.69;;;33.11;55.36
21109;BME280;10712;52.944;9.098;2023-08-24T11:42:54;101317.63;;;33.12;55.84
21109;BME280;10712;52.944;9.098;2023-08-24T11:45:21;101327.13;;;33.16;56.17
21109;BME280;10712;52.944;9.098;2023-08-24T11:47:48;101331.34;;;33.25;56.63
21109;BME280;10712;52.944;9.098;2023-08-24T11:50:14;101317.72;;;33.30;56.33
21109;BME280;10712;52.944;9.098;2023-08-24T11:52:41;101304.06;;;33.35;56.42
21109;BME280;10712;52.944;9.098;2023-08-24T11:55:07;101293.47;;;33.32;55.47
21109;BME280;10712;52.944;9.098;2023-08-24T11:57:34;101296.25;;;33.32;55.75
21109;BME280;10712;52.944;9.098;2023-08-24T12:00:04;101304.69;;;33.37;55.66
21109;BME280;10712;52.944;9.098;2023-08-24T12:02:31;101313.31;;;33.47;55.94
21109;BME280;10712;52.944;9.098;2023-08-24T12:04:58;101303.03;;;33.54;56.08
21109;BME280;10712;52.944;9.098;2023-08-24T12:07:24;101297.50;;;33.54;55.65
21109;BME280;10712;52.944;9.098;2023-08-24T12:09:51;101286.00;;;33.57;55.42
21109;BME280;10712;52.944;9.098;2023-08-24T12:12:20;101273.59;;;33.67;54.90
21109;BME280;10712;52.944;9.098;2023-08-24T12:14:49;101256.25;;;33.59;55.36
21109;BME280;10712;52.944;9.098;2023-08-24T12:17:16;101258.38;;;33.57;55.19
21109;BME280;10712;52.944;9.098;2023-08-24T12:19:56;101261.78;;;33.59;55.45
21109;BME280;10712;52.944;9.098;2023-08-24T12:22:22;101263.00;;;33.63;55.70
21109;BME280;10712;52.944;9.098;2023-08-24T12:24:48;101262.38;;;33.61;55.53
21109;BME280;10712;52.944;9.098;2023-08-24T12:27:25;101254.47;;;33.65;55.84
21109;BME280;10712;52.944;9.098;2023-08-24T12:29:51;101243.94;;;33.55;55.64
21109;BME280;10712;52.944;9.098;2023-08-24T12:32:21;101223.59;;;33.50;55.59
21109;BME280;10712;52.944;9.098;2023-08-24T12:34:49;101232.28;;;33.53;56.16
21109;BME280;10712;52.944;9.098;2023-08-24T12:37:17;101230.59;;;33.52;56.43
21109;BME280;10712;52.944;9.098;2023-08-24T12:39:43;101228.81;;;33.40;55.68
21109;BME280;10712;52.944;9.098;2023-08-24T12:42:09;101223.59;;;33.50;55.75
21109;BME280;10712;52.944;9.098;2023-08-24T12:44:34;101227.34;;;33.55;54.57
21109;BME280;10712;52.944;9.098;2023-08-24T12:47:02;101225.06;;;33.71;55.47
21109;BME280;10712;52.944;9.098;2023-08-24T12:49:28;101220.84;;;33.68;55.10
21109;BME280;10712;52.944;9.098;2023-08-24T12:51:54;101223.84;;;33.67;55.14
21109;BME280;10712;52.944;9.098;2023-08-24T12:54:20;101224.66;;;33.74;55.30
21109;BME280;10712;52.944;9.098;2023-08-24T12:56:47;101219.13;;;33.74;54.97
21109;BME280;10712;52.944;9.098;2023-08-24T12:59:12;101215.88;;;33.77;54.98
21109;BME280;10712;52.944;9.098;2023-08-24T13:01:38;101215.88;;;33.77;55.39